createdAt,value
2022-09-05T00:02:02.824Z,85.40
2022-09-05T00:04:46.586Z,85.20
2022-09-05T00:07:37.447Z,85.30
2022-09-05T00:10:09.057Z,85.80
2022-09-05T00:12:37.173Z,85.70
2022-09-05T00:15:23.957Z,85.80
2022-09-05T00:20:53.826Z,86.20
2022-09-05T00:24:23.092Z,86.60
2022-09-05T00:24:50.264Z,87.10
2022-09-05T00:27:37.137Z,87.60
2022-09-05T00:31:07.719Z,88.00
2022-09-05T00:33:16.597Z,88.70
2022-09-05T00:35:50.414Z,88.30
2022-09-05T00:38:36.547Z,88.50
2022-09-05T00:41:14.268Z,88.80
2022-09-05T00:43:44.488Z,89.60
2022-09-05T00:46:19.107Z,90.00
2022-09-05T00:49:09.645Z,90.00
2022-09-05T00:51:54.703Z,90.00
2022-09-05T00:54:41.123Z,90.20
2022-09-05T00:57:38.701Z,90.10
2022-09-05T01:00:28.836Z,90.00
2022-09-05T01:03:16.304Z,90.10
2022-09-05T01:06:14.283Z,90.30
2022-09-05T01:09:07.751Z,90.30
2022-09-05T01:11:58.270Z,90.50
2022-09-05T01:14:46.032Z,90.80
2022-09-05T01:17:31.450Z,91.00
2022-09-05T01:20:18.885Z,91.10
2022-09-05T01:23:29.900Z,91.40
2022-09-05T01:26:13.147Z,91.40
2022-09-05T01:29:15.698Z,91.70
2022-09-05T01:31:44.396Z,91.90
2022-09-05T01:34:11.170Z,92.00
2022-09-05T01:36:52.230Z,92.10
2022-09-05T01:40:11.173Z,92.30
2022-09-05T01:42:31.759Z,92.40
2022-09-05T01:45:10.359Z,92.60
2022-09-05T01:48:02.585Z,92.70
2022-09-05T01:51:28.188Z,92.50
2022-09-05T01:54:25.495Z,92.50
2022-09-05T01:57:24.618Z,92.40
2022-09-05T02:00:04.439Z,92.60
2022-09-05T02:02:55.754Z,92.40
2022-09-05T02:05:48.921Z,92.40
2022-09-05T02:08:15.585Z,92.40
2022-09-05T02:10:51.585Z,92.50
2022-09-05T02:13:36.731Z,92.70
2022-09-05T02:16:22.480Z,92.50
2022-09-05T02:19:01.377Z,92.70
2022-09-05T02:21:39.228Z,93.20
2022-09-05T02:24:41.895Z,93.40
2022-09-05T02:27:42.904Z,93.20
2022-09-05T02:30:10.177Z,93.40
2022-09-05T02:32:55.274Z,93.70
2022-09-05T02:35:36.959Z,93.50
2022-09-05T02:42:17.166Z,93.40
2022-09-05T02:45:16.999Z,93.40
2022-09-05T02:45:20.601Z,93.30
2022-09-05T02:47:46.031Z,93.40
2022-09-05T02:57:23.742Z,93.50
2022-09-05T02:57:36.693Z,94.00
2022-09-05T02:58:07.766Z,94.10
2022-09-05T03:00:28.217Z,94.20
2022-09-05T03:03:22.511Z,94.70
2022-09-05T03:06:10.374Z,94.40
2022-09-05T03:09:24.154Z,94.40
2022-09-05T03:12:29.214Z,94.30
2022-09-05T03:15:33.754Z,94.10
2022-09-05T03:18:20.219Z,94.20
2022-09-05T03:21:09.578Z,94.30
2022-09-05T03:24:10.522Z,94.60
2022-09-05T03:26:43.496Z,94.80
2022-09-05T03:29:13.411Z,94.90
2022-09-05T03:31:59.309Z,95.00
2022-09-05T03:35:08.438Z,95.00
2022-09-05T03:37:54.163Z,94.60
2022-09-05T03:40:40.661Z,94.80
2022-09-05T03:43:42.781Z,94.40
2022-09-05T03:46:12.661Z,94.60
2022-09-05T03:48:39.604Z,94.90
2022-09-05T03:57:04.465Z,94.70
2022-09-05T03:57:16.515Z,94.70
2022-09-05T03:57:22.449Z,95.10
2022-09-05T03:59:47.602Z,94.70
2022-09-05T04:07:54.750Z,94.70
2022-09-05T04:08:17.425Z,94.60
2022-09-05T04:08:41.837Z,94.70
2022-09-05T04:11:35.628Z,94.90
2022-09-05T04:14:25.366Z,94.70
2022-09-05T04:16:58.233Z,94.70
2022-09-05T04:19:37.256Z,94.40
2022-09-05T04:22:07.153Z,94.70
2022-09-05T04:24:47.359Z,94.30
2022-09-05T04:27:35.923Z,94.40
2022-09-05T04:30:40.721Z,94.10
2022-09-05T04:33:36.400Z,94.00
2022-09-05T04:36:25.969Z,94.20
2022-09-05T04:39:17.635Z,94.00
2022-09-05T04:41:50.072Z,93.80
2022-09-05T04:44:19.965Z,94.00
2022-09-05T04:46:54.608Z,94.00
2022-09-05T04:49:32.504Z,93.90
2022-09-05T04:52:13.333Z,93.80
2022-09-05T04:55:01.287Z,93.50
2022-09-05T04:57:36.712Z,93.10
2022-09-05T05:06:02.647Z,93.00
2022-09-05T05:06:19.741Z,93.10
2022-09-05T05:06:31.670Z,92.90
2022-09-05T05:09:27.857Z,92.70
2022-09-05T05:18:00.473Z,93.00
2022-09-05T05:18:12.193Z,92.40
2022-09-05T05:18:37.719Z,92.30
2022-09-05T05:21:07.867Z,92.40
2022-09-05T05:23:40.058Z,92.20
2022-09-05T05:26:11.949Z,92.20
2022-09-05T05:28:38.680Z,92.10
2022-09-05T05:31:33.806Z,92.00
2022-09-05T05:34:24.367Z,91.80
2022-09-05T05:37:18.441Z,91.70
2022-09-05T05:39:51.601Z,91.60
2022-09-05T05:42:24.259Z,91.20
2022-09-05T05:44:57.704Z,91.40
2022-09-05T05:47:28.370Z,91.20
2022-09-05T05:50:27.399Z,91.20
2022-09-05T05:53:33.592Z,91.00
2022-09-05T05:56:31.121Z,91.00
2022-09-05T05:58:58.222Z,91.20
2022-09-05T06:01:43.586Z,90.90
2022-09-05T06:05:00.701Z,91.20
2022-09-05T06:10:00.423Z,91.00
2022-09-05T06:14:49.991Z,90.80
2022-09-05T06:15:05.738Z,90.90
2022-09-05T06:17:16.325Z,91.00
2022-09-05T06:21:32.974Z,90.80
2022-09-05T06:23:00.647Z,90.70
2022-09-05T06:26:01.313Z,90.50
2022-09-05T06:28:43.640Z,90.50
2022-09-05T06:31:41.123Z,90.20
2022-09-05T06:34:44.581Z,90.10
2022-09-05T06:37:24.832Z,89.90
2022-09-05T06:40:21.813Z,89.30
2022-09-05T06:43:18.497Z,89.30
2022-09-05T06:45:58.565Z,88.90
2022-09-05T06:49:29.762Z,88.60
2022-09-05T06:52:28.407Z,88.40
2022-09-05T06:55:21.258Z,88.70
2022-09-05T06:58:17.177Z,88.20
2022-09-05T07:00:50.357Z,87.80
2022-09-05T07:03:47.506Z,87.70
2022-09-05T07:07:01.473Z,87.40
2022-09-05T07:09:48.705Z,87.50
2022-09-05T07:12:28.638Z,88.20
2022-09-05T07:15:08.326Z,88.20
2022-09-05T07:18:13.719Z,88.10
2022-09-05T07:21:16.841Z,87.90
2022-09-05T07:24:09.505Z,88.80
2022-09-05T07:26:52.029Z,88.30
2022-09-05T07:29:32.139Z,88.60
2022-09-05T07:32:01.176Z,89.10
2022-09-05T07:34:31.300Z,89.00
2022-09-05T07:37:25.372Z,89.00
2022-09-05T07:39:58.444Z,89.10
2022-09-05T07:43:09.318Z,89.00
2022-09-05T07:45:53.553Z,88.20
2022-09-05T07:48:34.813Z,88.80
2022-09-05T07:56:52.642Z,88.30
2022-09-05T07:56:56.440Z,88.70
2022-09-05T07:57:20.803Z,88.30
2022-09-05T07:59:42.844Z,88.70
2022-09-05T08:02:12.983Z,89.60
2022-09-05T08:04:42.009Z,89.60
2022-09-05T08:07:47.297Z,89.30
2022-09-05T08:10:05.810Z,88.90
2022-09-05T08:13:24.479Z,88.80
2022-09-05T08:16:09.867Z,88.40
2022-09-05T08:19:24.157Z,88.70
2022-09-05T08:21:53.969Z,88.30
2022-09-05T08:24:43.985Z,88.30
2022-09-05T08:27:28.496Z,87.80
2022-09-05T08:30:26.683Z,87.80
2022-09-05T08:33:11.000Z,87.00
2022-09-05T08:36:10.247Z,87.10
2022-09-05T08:38:41.230Z,86.60
2022-09-05T08:41:23.639Z,86.50
2022-09-05T08:46:43.268Z,86.00
2022-09-05T08:46:53.556Z,85.70
2022-09-05T08:49:45.565Z,85.20
2022-09-05T08:52:56.855Z,84.60
2022-09-05T08:55:39.399Z,84.50
2022-09-05T08:58:24.223Z,84.10
2022-09-05T09:01:19.203Z,83.80
2022-09-05T09:03:52.137Z,83.30
2022-09-05T09:06:33.352Z,83.00
2022-09-05T09:09:18.481Z,83.10
2022-09-05T09:11:57.704Z,82.80
2022-09-05T09:14:38.474Z,82.20
2022-09-05T09:17:20.479Z,82.00
2022-09-05T09:20:22.317Z,81.70
2022-09-05T09:23:05.518Z,81.60
2022-09-05T09:25:45.015Z,81.60
2022-09-05T09:28:47.551Z,81.10
2022-09-05T09:31:54.569Z,80.40
2022-09-05T09:34:29.276Z,80.20
2022-09-05T09:37:02.240Z,79.70
2022-09-05T09:39:39.247Z,79.60
2022-09-05T09:42:33.317Z,78.90
2022-09-05T09:45:28.654Z,78.60
2022-09-05T09:48:36.153Z,78.20
2022-09-05T09:51:35.912Z,78.70
2022-09-05T09:54:18.794Z,78.10
2022-09-05T09:57:21.590Z,77.90
2022-09-05T10:00:12.622Z,77.20
2022-09-05T10:10:05.988Z,77.00
2022-09-05T10:10:39.520Z,76.90
2022-09-05T10:10:49.404Z,75.20
2022-09-05T10:12:15.501Z,74.90
2022-09-05T10:15:10.120Z,73.90
2022-09-05T10:18:15.516Z,72.60
2022-09-05T10:21:43.895Z,72.10
2022-09-05T10:24:20.237Z,71.60
2022-09-05T10:26:56.596Z,72.00
2022-09-05T10:29:37.856Z,71.70
2022-09-05T10:35:10.888Z,70.80
2022-09-05T10:35:20.998Z,71.30
2022-09-05T10:37:57.452Z,71.00
2022-09-05T10:40:26.493Z,70.80
2022-09-05T10:43:01.389Z,71.40
2022-09-05T10:45:45.282Z,71.00
2022-09-05T10:48:18.313Z,70.40
2022-09-05T10:50:52.696Z,69.10
2022-09-05T10:53:39.769Z,68.20
2022-09-05T10:56:29.797Z,67.50
2022-09-05T11:01:30.993Z,67.20
2022-09-05T11:02:29.473Z,66.80
2022-09-05T11:05:19.392Z,66.20
2022-09-05T11:08:05.623Z,65.90
2022-09-05T11:10:52.629Z,65.90
2022-09-05T11:13:23.930Z,65.50
2022-09-05T11:16:04.570Z,64.70
2022-09-05T11:18:56.391Z,64.10
2022-09-05T11:21:48.806Z,64.90
2022-09-05T11:24:48.851Z,64.90
2022-09-05T11:27:47.388Z,64.20
2022-09-05T11:30:30.071Z,63.70
2022-09-05T11:39:08.674Z,64.10
2022-09-05T11:39:52.577Z,61.30
2022-09-05T11:40:29.083Z,61.70
2022-09-05T11:43:18.213Z,62.20
2022-09-05T11:46:03.525Z,63.30
2022-09-05T11:48:36.314Z,61.40
2022-09-05T11:51:47.587Z,61.30
2022-09-05T11:54:20.498Z,60.90
2022-09-05T11:57:33.423Z,60.70
2022-09-05T12:00:32.757Z,59.90
2022-09-05T12:04:03.725Z,60.00
2022-09-05T12:06:47.810Z,60.70
2022-09-05T12:09:23.614Z,59.50
2022-09-05T12:12:06.394Z,59.20
2022-09-05T12:15:08.351Z,59.10
2022-09-05T12:17:55.981Z,58.80
2022-09-05T12:24:05.388Z,58.60
2022-09-05T12:27:38.395Z,57.80
2022-09-05T12:29:29.368Z,58.50
2022-09-05T12:33:11.369Z,56.60
2022-09-05T12:36:05.574Z,56.90
2022-09-05T12:41:14.751Z,56.40
2022-09-05T12:41:41.391Z,57.70
2022-09-05T12:41:45.178Z,56.80
2022-09-05T12:44:41.945Z,55.00
2022-09-05T12:47:18.834Z,54.70
2022-09-05T12:50:15.012Z,53.10
2022-09-05T12:52:46.760Z,51.60
2022-09-05T12:55:26.284Z,50.70
2022-09-05T13:02:50.347Z,50.00
2022-09-05T13:03:05.043Z,49.40
2022-09-05T13:03:59.667Z,49.30
2022-09-05T13:06:42.775Z,49.00
2022-09-05T13:09:19.542Z,48.10
2022-09-05T13:14:54.434Z,48.30
2022-09-05T13:15:18.741Z,49.00
2022-09-05T13:17:59.260Z,48.90
2022-09-05T13:20:36.530Z,47.60
2022-09-05T13:23:18.629Z,47.50
2022-09-05T13:25:56.297Z,47.30
2022-09-05T13:28:26.443Z,47.90
2022-09-05T13:36:17.280Z,48.80
2022-09-05T13:38:03.700Z,47.30
2022-09-05T13:38:11.852Z,48.20
2022-09-05T13:39:59.910Z,45.10
2022-09-05T13:42:42.670Z,42.40
2022-09-05T13:45:18.744Z,41.40
2022-09-05T13:48:00.667Z,41.00
2022-09-05T13:50:29.551Z,41.10
2022-09-05T13:52:58.990Z,41.90
2022-09-05T13:55:54.837Z,41.60
2022-09-05T13:58:45.414Z,41.00
2022-09-05T14:01:58.699Z,40.60
2022-09-05T14:05:21.443Z,39.70
2022-09-05T14:08:22.233Z,40.30
2022-09-05T14:11:17.296Z,41.60
2022-09-05T14:13:44.175Z,42.10
2022-09-05T14:16:23.082Z,41.20
2022-09-05T14:19:10.583Z,40.60
2022-09-05T14:21:40.987Z,42.10
2022-09-05T14:24:27.678Z,42.00
2022-09-05T14:26:58.913Z,42.30
2022-09-05T14:29:46.114Z,42.70
2022-09-05T14:37:38.939Z,43.60
2022-09-05T14:37:42.671Z,44.30
2022-09-05T14:38:29.027Z,43.80
2022-09-05T14:41:15.190Z,42.40
2022-09-05T14:43:56.853Z,41.70
2022-09-05T14:47:02.867Z,40.50
2022-09-05T14:49:49.410Z,39.30
2022-09-05T14:52:31.671Z,37.30
2022-09-05T15:02:42.068Z,37.10
2022-09-05T15:02:52.180Z,36.80
2022-09-05T15:06:38.122Z,39.00
2022-09-05T15:11:55.000Z,41.90
2022-09-05T15:12:23.643Z,44.00
2022-09-05T15:14:56.095Z,45.50
2022-09-05T15:17:26.282Z,47.30
2022-09-05T15:20:05.443Z,52.70
2022-09-05T15:22:37.293Z,58.00
2022-09-05T15:25:26.027Z,58.90
2022-09-05T15:27:53.518Z,59.50
2022-09-05T15:30:31.896Z,60.70
2022-09-05T15:33:25.849Z,59.90
2022-09-05T15:35:53.420Z,62.70
2022-09-05T15:38:46.295Z,64.70
2022-09-05T15:41:30.454Z,68.00
2022-09-05T15:44:09.636Z,71.30
2022-09-05T15:46:53.367Z,72.60
2022-09-05T15:49:25.668Z,73.30
2022-09-05T15:51:56.984Z,72.60
2022-09-05T15:54:33.914Z,70.20
2022-09-05T15:57:09.019Z,69.10
2022-09-05T15:59:48.980Z,67.60
2022-09-05T16:02:23.787Z,66.80
2022-09-05T16:10:27.275Z,67.80
2022-09-05T16:10:35.028Z,67.60
2022-09-05T16:12:03.051Z,66.60
2022-09-05T16:15:14.825Z,66.10
2022-09-05T16:23:15.377Z,66.20
2022-09-05T16:23:35.084Z,65.40
2022-09-05T16:24:00.818Z,65.10
2022-09-05T16:26:39.263Z,64.80
2022-09-05T16:29:22.669Z,64.70
2022-09-05T16:31:57.482Z,64.80
2022-09-05T16:34:45.503Z,64.50
2022-09-05T16:37:15.300Z,64.10
2022-09-05T16:39:50.457Z,64.40
2022-09-05T16:42:24.031Z,64.60
2022-09-05T16:45:22.032Z,65.10
2022-09-05T16:48:05.306Z,65.20
2022-09-05T16:51:16.900Z,65.60
2022-09-05T16:53:58.834Z,66.30
2022-09-05T16:56:44.734Z,66.20
2022-09-05T16:59:31.940Z,66.40
2022-09-05T17:02:12.173Z,66.70
2022-09-05T17:05:03.681Z,67.00
2022-09-05T17:07:47.451Z,67.30
2022-09-05T17:10:25.716Z,67.50
2022-09-05T17:12:54.069Z,67.30
2022-09-05T17:15:34.944Z,67.00
2022-09-05T17:18:20.789Z,67.10
2022-09-05T17:20:54.676Z,67.00
2022-09-05T17:28:01.131Z,67.40
2022-09-05T17:29:30.535Z,67.40
2022-09-05T17:32:51.558Z,68.60
2022-09-05T17:35:31.901Z,68.60
2022-09-05T17:38:28.413Z,68.40
2022-09-05T17:41:17.158Z,68.30
2022-09-05T17:43:51.374Z,68.40
2022-09-05T17:46:25.672Z,69.00
2022-09-05T17:49:18.347Z,69.30
2022-09-05T17:51:51.425Z,69.50
2022-09-05T17:54:30.802Z,70.40
2022-09-05T17:57:26.746Z,70.50
2022-09-05T18:00:12.250Z,71.10
2022-09-05T18:02:56.815Z,72.00
2022-09-05T18:06:01.158Z,73.00
2022-09-05T18:08:46.431Z,73.80
2022-09-05T18:11:25.083Z,74.10
2022-09-05T18:19:45.489Z,76.30
2022-09-05T18:22:32.465Z,76.90
2022-09-05T18:25:30.738Z,77.40
2022-09-05T18:28:12.646Z,78.40
2022-09-05T18:30:39.670Z,79.20
2022-09-05T18:33:55.602Z,80.00
2022-09-05T18:36:25.837Z,80.40
2022-09-05T18:39:24.338Z,80.30
2022-09-05T18:42:34.030Z,79.50
2022-09-05T18:45:15.228Z,79.20
2022-09-05T18:48:00.059Z,81.70
2022-09-05T18:50:32.268Z,83.70
2022-09-05T18:53:10.352Z,86.20
2022-09-05T18:56:12.081Z,90.80
2022-09-05T18:59:12.591Z,95.30
2022-09-05T19:01:45.442Z,99.90
2022-09-05T19:04:41.010Z,99.90
2022-09-05T19:07:18.592Z,99.90
2022-09-05T19:10:35.421Z,99.90
2022-09-05T19:13:31.626Z,99.90
2022-09-05T19:16:42.782Z,99.90
2022-09-05T19:19:11.523Z,99.90
2022-09-05T19:21:46.512Z,99.90
2022-09-05T19:24:25.508Z,99.90
2022-09-05T19:27:35.844Z,99.90
2022-09-05T19:36:58.066Z,99.90
2022-09-05T19:36:59.989Z,99.90
2022-09-05T19:37:13.594Z,99.90
2022-09-05T19:38:16.728Z,99.90
2022-09-05T19:47:29.164Z,99.90
2022-09-05T19:47:43.031Z,99.90
2022-09-05T19:47:45.143Z,99.90
2022-09-05T19:49:13.258Z,99.90
2022-09-05T19:51:41.829Z,99.90
2022-09-05T19:54:32.620Z,99.90
2022-09-05T19:57:02.471Z,99.90
2022-09-05T19:59:34.646Z,99.90
2022-09-05T20:02:03.009Z,99.90
2022-09-05T20:04:53.214Z,99.90
2022-09-05T20:07:28.653Z,99.90
2022-09-05T20:09:58.176Z,99.90
2022-09-05T20:12:34.587Z,99.90
2022-09-05T20:15:23.224Z,99.90
2022-09-05T20:17:54.304Z,99.90
2022-09-05T20:20:25.709Z,99.90
2022-09-05T20:22:57.880Z,99.90
2022-09-05T20:25:40.433Z,99.90
2022-09-05T20:28:16.636Z,99.90
2022-09-05T20:30:47.812Z,99.90
2022-09-05T20:33:34.049Z,99.90
2022-09-05T20:43:15.326Z,99.90
2022-09-05T20:43:17.495Z,99.90
2022-09-05T20:43:19.455Z,99.90
2022-09-05T20:44:50.611Z,99.90
2022-09-05T20:54:04.755Z,99.90
2022-09-05T20:54:21.520Z,99.90
2022-09-05T20:54:28.947Z,99.90
2022-09-05T20:56:21.086Z,99.90
2022-09-05T20:58:55.718Z,99.90
2022-09-05T21:01:23.696Z,99.90
2022-09-05T21:04:03.706Z,99.90
2022-09-05T21:06:36.115Z,99.90
2022-09-05T21:09:24.642Z,99.90
2022-09-05T21:11:56.569Z,99.90
2022-09-05T21:14:26.629Z,99.90
2022-09-05T21:17:15.670Z,99.90
2022-09-05T21:19:53.536Z,99.90
2022-09-05T21:22:21.323Z,99.90
2022-09-05T21:25:08.264Z,99.90
2022-09-05T21:27:35.336Z,99.90
2022-09-05T21:30:25.333Z,99.90
2022-09-05T21:33:07.114Z,99.90
2022-09-05T21:35:44.138Z,99.90
2022-09-05T21:38:16.630Z,99.90
2022-09-05T21:41:04.494Z,99.90
2022-09-05T21:47:34.700Z,99.90
2022-09-05T21:47:46.312Z,99.90
2022-09-05T21:49:09.129Z,99.90
2022-09-05T21:51:37.727Z,99.90
2022-09-05T21:59:03.418Z,99.90
2022-09-05T21:59:24.823Z,99.90
2022-09-05T21:59:56.361Z,99.90
2022-09-05T22:02:28.730Z,99.90
2022-09-05T22:05:02.755Z,99.90
2022-09-05T22:07:34.951Z,99.90
2022-09-05T22:10:05.821Z,99.90
2022-09-05T22:12:36.230Z,99.90
2022-09-05T22:15:28.106Z,99.90
2022-09-05T22:17:58.449Z,99.90
2022-09-05T22:20:51.250Z,99.90
2022-09-05T22:23:31.661Z,99.90
2022-09-05T22:25:59.709Z,99.90
2022-09-05T22:28:33.630Z,99.90
2022-09-05T22:31:07.510Z,99.90
2022-09-05T22:33:36.234Z,99.90
2022-09-05T22:36:06.203Z,99.90
2022-09-05T22:38:33.662Z,99.90
2022-09-05T22:41:00.713Z,99.90
2022-09-05T22:43:33.136Z,99.90
2022-09-05T22:46:00.261Z,99.90
2022-09-05T22:48:27.183Z,99.90
2022-09-05T22:50:54.214Z,99.90
2022-09-05T22:53:21.112Z,99.90
2022-09-05T22:55:59.562Z,99.90
2022-09-05T22:58:26.930Z,99.90
2022-09-05T23:00:54.058Z,99.90
2022-09-05T23:03:20.880Z,99.90
2022-09-05T23:05:47.721Z,99.90
2022-09-05T23:08:14.833Z,99.90
2022-09-05T23:10:41.620Z,99.90
2022-09-05T23:13:10.327Z,99.90
2022-09-05T23:15:38.240Z,99.90
2022-09-05T23:18:05.661Z,99.90
2022-09-05T23:20:34.247Z,99.90
2022-09-05T23:23:07.582Z,99.90
2022-09-05T23:25:36.267Z,99.90
2022-09-05T23:28:10.290Z,99.90
2022-09-05T23:30:38.449Z,99.90
2022-09-05T23:33:07.035Z,99.90
2022-09-05T23:35:35.084Z,99.90
2022-09-05T23:38:01.918Z,99.90
2022-09-05T23:40:28.883Z,99.90
2022-09-05T23:42:57.971Z,99.90
2022-09-05T23:45:25.829Z,99.90
2022-09-05T23:47:52.924Z,99.90
2022-09-05T23:50:20.841Z,99.90
2022-09-05T23:52:47.943Z,99.90
2022-09-05T23:55:17.273Z,99.90
2022-09-05T23:57:44.475Z,99.90
